Time;durP1;ratioP1;P1;durP2;ratioP2;P2;SDS_P1;SDS_P2;PMS_P1;PMS_P2;Temp;Humidity;BMP_temperature;BMP_pressure;BME280_temperature;BME280_humidity;BME280_pressure;Samples;Min_cycle;Max_cycle;Signal;HPM_P1;HPM_P2
2022/07/11 00:00:48;;;;;;;3.55;2.00;;;15.90;99.90;;;;;;5004411;28;20068;-72
2022/07/11 00:03:14;;;;;;;3.20;2.00;;;15.80;99.90;;;;;;4991683;28;20060;-72
2022/07/11 00:05:39;;;;;;;5.03;2.20;;;15.80;99.90;;;;;;5004312;28;20041;-72
2022/07/11 00:08:06;;;;;;;5.07;2.38;;;15.80;99.90;;;;;;5008511;28;20044;-71
2022/07/11 00:10:33;;;;;;;3.97;2.30;;;15.70;99.90;;;;;;5007740;28;20041;-72
2022/07/11 00:12:59;;;;;;;4.88;1.92;;;15.70;99.90;;;;;;5021792;28;20026;-73
2022/07/11 00:15:24;;;;;;;3.58;2.05;;;15.70;99.90;;;;;;5005947;28;20032;-73
2022/07/11 00:17:50;;;;;;;4.35;2.28;;;15.70;99.90;;;;;;5007227;28;20037;-73
2022/07/11 00:20:16;;;;;;;4.68;2.33;;;15.70;99.90;;;;;;5008361;28;20065;-72
2022/07/11 00:22:42;;;;;;;4.32;2.30;;;15.70;99.90;;;;;;5010205;28;20042;-72
2022/07/11 00:25:08;;;;;;;3.15;2.00;;;15.60;99.90;;;;;;4994061;28;20080;-73
2022/07/11 00:27:33;;;;;;;5.32;2.30;;;15.60;99.90;;;;;;5006391;28;20499;-72
2022/07/11 00:29:59;;;;;;;4.30;2.10;;;15.50;99.90;;;;;;5006524;28;20038;-72
2022/07/11 00:32:25;;;;;;;4.97;2.35;;;15.40;99.90;;;;;;5014828;28;20049;-72
2022/07/11 00:34:51;;;;;;;3.70;1.90;;;15.40;99.90;;;;;;5012012;28;20058;-73
2022/07/11 00:37:17;;;;;;;4.47;2.22;;;15.30;99.90;;;;;;5006813;28;20308;-72
2022/07/11 00:39:42;;;;;;;4.68;2.10;;;15.20;99.90;;;;;;5009787;28;20122;-73
2022/07/11 00:42:08;;;;;;;4.45;2.13;;;15.20;99.90;;;;;;5005181;28;20544;-72
2022/07/11 00:44:36;;;;;;;3.63;2.08;;;15.10;99.90;;;;;;5008732;28;20583;-71
2022/07/11 00:47:02;;;;;;;4.13;2.05;;;15.10;99.90;;;;;;5011865;28;20041;-72
2022/07/11 00:49:27;;;;;;;4.55;2.10;;;15.00;99.90;;;;;;5019672;28;20048;-71
2022/07/11 00:51:53;;;;;;;4.10;2.25;;;15.00;99.90;;;;;;5008046;28;20041;-71
2022/07/11 00:54:22;;;;;;;3.20;1.83;;;14.80;99.90;;;;;;5018598;28;20064;-72
2022/07/11 00:56:48;;;;;;;3.70;1.75;;;14.70;99.90;;;;;;5000758;28;20064;-72
2022/07/11 00:59:16;;;;;;;5.55;2.17;;;14.70;99.90;;;;;;5006423;28;20460;-74
2022/07/11 01:01:42;;;;;;;4.10;1.98;;;14.60;99.90;;;;;;5019458;28;20041;-72
2022/07/11 01:04:07;;;;;;;4.88;2.42;;;14.60;99.90;;;;;;5005263;28;20022;-72
2022/07/11 01:06:33;;;;;;;3.90;2.22;;;14.60;99.90;;;;;;5006438;28;20026;-72
2022/07/11 01:08:59;;;;;;;4.75;2.00;;;14.60;99.90;;;;;;5009191;28;20117;-71
2022/07/11 01:11:27;;;;;;;4.22;2.10;;;14.60;99.90;;;;;;5009351;28;20526;-73
2022/07/11 01:13:52;;;;;;;4.28;2.28;;;14.60;99.90;;;;;;5007830;28;20045;-72
2022/07/11 01:16:22;;;;;;;3.70;2.20;;;14.60;99.90;;;;;;5012555;28;20034;-72
2022/07/11 01:18:50;;;;;;;4.47;2.40;;;14.60;99.90;;;;;;4993011;28;20080;-72
2022/07/11 01:21:28;;;;;;;5.65;2.70;;;14.60;99.90;;;;;;5008884;28;20038;-73
2022/07/11 01:23:56;;;;;;;4.50;2.45;;;14.60;99.90;;;;;;4993460;28;21504;-72
2022/07/11 01:26:23;;;;;;;4.95;2.58;;;14.60;99.90;;;;;;5018538;28;20034;-72
2022/07/11 01:28:49;;;;;;;3.95;2.28;;;14.60;99.90;;;;;;5009136;28;20048;-73
2022/07/11 01:31:15;;;;;;;4.60;2.40;;;14.60;99.90;;;;;;5015985;28;20222;-73
2022/07/11 01:33:41;;;;;;;5.63;2.60;;;14.60;99.90;;;;;;4989279;28;20484;-72
2022/07/11 01:36:08;;;;;;;5.03;2.75;;;14.60;99.90;;;;;;5002567;28;20080;-72
2022/07/11 01:38:34;;;;;;;4.82;2.50;;;14.60;99.90;;;;;;4987987;28;20042;-73
2022/07/11 01:41:00;;;;;;;5.90;2.72;;;14.60;99.90;;;;;;5002337;28;20049;-73
2022/07/11 01:43:26;;;;;;;5.10;2.55;;;14.60;99.90;;;;;;5000877;28;20435;-73
2022/07/11 01:45:53;;;;;;;5.40;2.40;;;14.50;99.90;;;;;;4990491;28;20065;-73
2022/07/11 01:48:19;;;;;;;4.57;2.72;;;14.50;99.90;;;;;;4985572;28;20220;-72
2022/07/11 01:50:45;;;;;;;4.63;2.75;;;14.50;99.90;;;;;;4988097;28;20455;-73
2022/07/11 01:53:11;;;;;;;5.05;2.50;;;14.40;99.90;;;;;;4996416;28;20041;-73
2022/07/11 01:55:37;;;;;;;5.25;3.00;;;14.40;99.90;;;;;;4986885;28;20034;-73
2022/07/11 01:58:03;;;;;;;5.03;2.88;;;14.50;99.90;;;;;;4986601;28;20042;-73
2022/07/11 02:00:28;;;;;;;6.72;3.05;;;14.50;99.90;;;;;;4988836;28;20029;-72
2022/07/11 02:02:54;;;;;;;5.32;2.60;;;14.50;99.90;;;;;;4989877;28;20389;-73
2022/07/11 02:05:20;;;;;;;5.43;3.35;;;14.50;99.90;;;;;;4987125;28;20035;-73
2022/07/11 02:10:29;;;;;;;5.50;2.85;;;14.50;99.90;;;;;;4991278;28;20033;-73
2022/07/11 02:12:59;;;;;;;4.70;2.83;;;14.50;99.90;;;;;;4988351;28;20038;-73
2022/07/11 02:15:29;;;;;;;4.78;2.63;;;14.50;99.90;;;;;;4991321;28;20038;-73
2022/07/11 02:17:55;;;;;;;5.78;2.70;;;14.50;99.90;;;;;;4988315;28;20069;-72
2022/07/11 02:20:22;;;;;;;5.90;2.78;;;14.60;99.90;;;;;;4987011;28;20045;-72
2022/07/11 02:22:50;;;;;;;5.85;2.63;;;14.60;99.90;;;;;;4986523;28;20045;-73
2022/07/11 02:25:17;;;;;;;4.85;2.70;;;14.60;99.90;;;;;;4990288;28;20089;-73
2022/07/11 02:27:43;;;;;;;7.80;2.80;;;14.60;99.90;;;;;;4972027;28;20040;-72
2022/07/11 02:30:09;;;;;;;5.05;3.13;;;14.60;99.90;;;;;;4988285;28;20030;-73
2022/07/11 02:32:36;;;;;;;4.43;2.80;;;14.50;99.90;;;;;;4998983;28;20111;-72
2022/07/11 02:35:02;;;;;;;5.63;2.80;;;14.50;99.90;;;;;;5004933;28;20041;-73
2022/07/11 02:37:27;;;;;;;4.00;2.55;;;14.50;99.90;;;;;;4995862;28;20038;-73
2022/07/11 02:39:53;;;;;;;5.03;2.47;;;14.50;99.90;;;;;;5011302;28;20365;-72
2022/07/11 02:42:19;;;;;;;4.18;2.65;;;14.50;99.90;;;;;;5010831;28;20033;-72
2022/07/11 02:44:45;;;;;;;4.30;2.90;;;14.50;99.90;;;;;;5006764;28;20034;-71
2022/07/11 02:47:11;;;;;;;5.10;3.00;;;14.50;99.90;;;;;;5010618;28;20404;-71
2022/07/11 02:49:37;;;;;;;5.50;2.85;;;14.40;99.90;;;;;;5007208;28;20025;-72
2022/07/11 02:52:03;;;;;;;4.70;2.80;;;14.40;99.90;;;;;;5006738;28;20041;-73
2022/07/11 02:54:29;;;;;;;5.55;2.95;;;14.40;99.90;;;;;;5011684;28;20500;-72
2022/07/11 02:56:56;;;;;;;3.80;2.67;;;14.40;99.90;;;;;;5006196;28;20065;-71
2022/07/11 02:59:22;;;;;;;6.13;2.95;;;14.40;99.90;;;;;;5008238;28;20522;-72
2022/07/11 03:01:48;;;;;;;5.47;2.83;;;14.40;99.90;;;;;;4990142;28;20128;-73
2022/07/11 03:04:14;;;;;;;5.22;2.90;;;14.30;99.90;;;;;;5010583;28;20037;-72
2022/07/11 03:06:40;;;;;;;4.72;2.72;;;14.40;99.90;;;;;;5013597;28;20034;-72
2022/07/11 03:09:07;;;;;;;6.35;2.78;;;14.30;99.90;;;;;;5013536;28;20045;-72
2022/07/11 03:11:33;;;;;;;5.85;2.95;;;14.30;99.90;;;;;;5008426;28;20025;-72
2022/07/11 03:14:00;;;;;;;5.28;2.90;;;14.30;99.90;;;;;;5021849;28;20037;-72
2022/07/11 03:16:26;;;;;;;4.07;2.50;;;14.20;99.90;;;;;;5015014;28;20033;-72
2022/07/11 03:18:52;;;;;;;4.80;2.80;;;14.10;99.90;;;;;;5006689;28;20049;-73
2022/07/11 03:21:18;;;;;;;5.47;2.90;;;14.00;99.90;;;;;;4989806;28;20403;-72
2022/07/11 03:23:43;;;;;;;5.70;2.97;;;13.90;99.90;;;;;;5016880;28;20029;-72
2022/07/11 03:26:09;;;;;;;5.68;2.83;;;14.00;99.90;;;;;;5017680;28;20459;-72
2022/07/11 03:28:35;;;;;;;4.80;3.10;;;13.90;99.90;;;;;;5007264;28;20044;-72
2022/07/11 03:31:01;;;;;;;4.53;2.75;;;13.80;99.90;;;;;;5014138;28;20034;-72
2022/07/11 03:33:27;;;;;;;5.63;3.05;;;13.80;99.90;;;;;;5007480;28;20077;-73
2022/07/11 03:35:53;;;;;;;5.72;2.75;;;13.70;99.90;;;;;;4990761;28;20083;-71
2022/07/11 03:38:20;;;;;;;5.53;2.70;;;13.70;99.90;;;;;;5006769;28;20041;-73
2022/07/11 03:40:47;;;;;;;5.13;2.83;;;13.60;99.90;;;;;;5020247;28;20071;-71
2022/07/11 03:43:13;;;;;;;4.28;2.75;;;13.60;99.90;;;;;;5008118;28;20092;-73
2022/07/11 03:45:39;;;;;;;5.05;2.70;;;13.60;99.90;;;;;;5010197;28;20684;-73
2022/07/11 03:48:06;;;;;;;4.47;2.63;;;13.60;99.90;;;;;;4990824;28;20042;-72
2022/07/11 03:50:32;;;;;;;5.47;2.70;;;13.60;99.90;;;;;;5009545;28;20030;-72
2022/07/11 03:52:58;;;;;;;4.75;2.65;;;13.60;99.90;;;;;;5008866;28;20037;-73
2022/07/11 03:55:24;;;;;;;5.82;2.85;;;13.60;99.90;;;;;;5008207;28;20030;-73
2022/07/11 03:57:50;;;;;;;5.55;2.97;;;13.70;99.90;;;;;;5005598;28;20532;-72
2022/07/11 04:00:16;;;;;;;5.13;2.90;;;13.70;99.90;;;;;;5002843;28;20034;-71
2022/07/11 04:02:43;;;;;;;6.85;3.30;;;13.60;99.90;;;;;;4993608;28;20030;-72
2022/07/11 04:05:08;;;;;;;6.07;3.15;;;13.50;99.90;;;;;;5008652;28;20038;-72
2022/07/11 04:07:34;;;;;;;6.38;3.00;;;13.40;99.90;;;;;;5005008;28;20496;-72
2022/07/11 04:10:00;;;;;;;5.38;2.88;;;13.40;99.90;;;;;;4989626;28;20057;-72
2022/07/11 04:12:26;;;;;;;5.25;3.00;;;13.40;99.90;;;;;;5005973;28;20475;-74
2022/07/11 04:14:52;;;;;;;6.20;3.50;;;13.30;99.90;;;;;;5016470;28;20179;-73
2022/07/11 04:17:17;;;;;;;5.78;3.13;;;13.20;99.90;;;;;;5009764;28;20056;-72
2022/07/11 04:19:43;;;;;;;5.78;2.97;;;13.30;99.90;;;;;;5001499;28;20030;-71
2022/07/11 04:22:09;;;;;;;5.20;3.00;;;13.20;99.90;;;;;;5012609;28;20044;-72
2022/07/11 04:24:34;;;;;;;6.88;3.25;;;13.20;99.90;;;;;;5017264;28;20030;-72
2022/07/11 04:27:00;;;;;;;6.10;3.13;;;13.20;99.90;;;;;;5014806;28;20838;-72
2022/07/11 04:29:26;;;;;;;5.95;2.90;;;13.30;99.90;;;;;;5011796;28;20064;-72
2022/07/11 04:31:52;;;;;;;4.53;3.00;;;13.30;99.90;;;;;;5008887;28;20743;-72
2022/07/11 04:34:18;;;;;;;5.03;3.25;;;13.30;99.90;;;;;;5013946;28;20057;-71
2022/07/11 04:36:44;;;;;;;5.53;3.03;;;13.30;99.90;;;;;;5020834;28;20061;-72
2022/07/11 04:39:10;;;;;;;4.80;2.80;;;13.30;99.90;;;;;;5019390;28;20040;-71
2022/07/11 04:41:36;;;;;;;4.82;2.80;;;13.30;99.90;;;;;;5011448;28;20026;-73
2022/07/11 04:44:02;;;;;;;4.95;3.03;;;13.40;99.90;;;;;;4991196;28;20026;-72
2022/07/11 04:46:29;;;;;;;4.40;3.10;;;13.40;99.90;;;;;;5016189;28;20030;-72
2022/07/11 04:48:55;;;;;;;4.80;3.00;;;13.40;99.90;;;;;;4996544;28;20049;-72
2022/07/11 04:51:21;;;;;;;6.53;3.10;;;13.40;99.90;;;;;;5009144;28;20573;-72
2022/07/11 04:53:47;;;;;;;5.65;3.17;;;13.40;99.90;;;;;;5015104;28;20069;-72
2022/07/11 04:56:13;;;;;;;4.25;2.85;;;13.40;99.90;;;;;;5016941;28;20042;-72
2022/07/11 04:58:38;;;;;;;4.95;2.92;;;13.40;99.90;;;;;;5007475;28;20046;-72
2022/07/11 05:01:04;;;;;;;4.75;2.80;;;13.40;99.90;;;;;;5007758;28;20030;-72
2022/07/11 05:03:32;;;;;;;4.13;2.70;;;13.50;99.90;;;;;;5009747;28;20045;-72
2022/07/11 05:05:58;;;;;;;6.40;3.13;;;13.50;99.90;;;;;;5009775;28;20144;-73
2022/07/11 05:08:23;;;;;;;4.97;3.10;;;13.50;99.90;;;;;;4988612;28;20037;-73
2022/07/11 05:10:49;;;;;;;5.00;2.88;;;13.50;99.90;;;;;;5000552;28;20038;-72
2022/07/11 05:13:15;;;;;;;4.95;2.67;;;13.60;99.90;;;;;;5010403;28;20064;-73
2022/07/11 05:15:41;;;;;;;5.38;2.70;;;13.60;99.90;;;;;;5014492;28;20491;-72
2022/07/11 05:18:06;;;;;;;4.75;2.83;;;13.60;99.90;;;;;;5008606;28;20037;-73
2022/07/11 05:20:32;;;;;;;6.95;3.20;;;13.70;99.90;;;;;;5017019;28;20121;-72
2022/07/11 05:22:58;;;;;;;5.07;2.97;;;13.80;99.90;;;;;;5008070;28;20048;-71
2022/07/11 05:25:24;;;;;;;5.80;3.17;;;13.80;99.90;;;;;;5016094;28;20117;-72
2022/07/11 05:27:50;;;;;;;6.15;3.35;;;13.90;99.90;;;;;;5011998;28;20133;-72
2022/07/11 05:30:16;;;;;;;5.47;3.10;;;13.90;99.90;;;;;;5008205;28;20116;-72
2022/07/11 05:32:42;;;;;;;5.13;2.90;;;14.00;99.90;;;;;;5011721;28;20103;-72
2022/07/11 05:35:09;;;;;;;5.10;2.97;;;14.10;99.90;;;;;;5005588;28;20069;-72
2022/07/11 05:37:34;;;;;;;5.28;2.70;;;14.10;99.90;;;;;;5008062;28;20507;-71
2022/07/11 05:40:00;;;;;;;5.45;2.92;;;14.20;99.90;;;;;;5014228;28;20117;-72
2022/07/11 05:42:26;;;;;;;5.72;2.75;;;14.30;99.90;;;;;;5008972;28;20048;-72
2022/07/11 05:44:52;;;;;;;4.93;3.20;;;14.30;99.90;;;;;;5011722;28;20404;-72
2022/07/11 05:47:17;;;;;;;4.85;2.95;;;14.30;99.90;;;;;;5008990;28;20080;-72
2022/07/11 05:49:43;;;;;;;4.85;2.70;;;14.40;99.90;;;;;;5014416;28;20068;-72
2022/07/11 05:52:09;;;;;;;6.15;2.97;;;14.40;99.90;;;;;;5010154;28;20479;-72
2022/07/11 05:54:35;;;;;;;6.57;2.90;;;14.50;99.90;;;;;;5019093;28;20033;-72
2022/07/11 05:57:02;;;;;;;6.47;3.20;;;14.50;99.90;;;;;;5018275;28;20033;-72
2022/07/11 05:59:28;;;;;;;6.32;2.80;;;14.50;99.90;;;;;;5013030;28;20109;-72
2022/07/11 06:01:54;;;;;;;6.22;2.85;;;14.60;99.90;;;;;;5004593;28;20048;-72
2022/07/11 06:04:20;;;;;;;5.07;2.78;;;14.60;99.90;;;;;;5008399;28;20639;-72
2022/07/11 06:06:46;;;;;;;5.85;3.20;;;14.70;99.90;;;;;;5006289;28;20117;-72
2022/07/11 06:09:12;;;;;;;6.35;3.15;;;14.70;99.90;;;;;;5008514;28;20427;-72
2022/07/11 06:11:38;;;;;;;5.07;2.65;;;14.80;99.90;;;;;;5006439;28;20038;-72
2022/07/11 06:14:05;;;;;;;5.90;3.13;;;14.80;99.90;;;;;;5022047;28;20041;-71
2022/07/11 06:16:31;;;;;;;5.72;2.80;;;14.90;99.90;;;;;;5007112;28;20037;-72
2022/07/11 06:18:57;;;;;;;5.65;2.80;;;15.10;99.90;;;;;;5009598;28;20025;-72
2022/07/11 06:21:24;;;;;;;4.25;2.22;;;15.20;99.90;;;;;;5006699;28;20030;-71
2022/07/11 06:23:50;;;;;;;3.97;2.60;;;15.30;99.90;;;;;;5007299;28;20183;-71
2022/07/11 06:26:16;;;;;;;4.82;2.28;;;15.40;99.90;;;;;;5006740;28;20388;-73
2022/07/11 06:28:42;;;;;;;5.30;2.40;;;15.60;99.90;;;;;;5006455;28;20056;-73
2022/07/11 06:31:08;;;;;;;4.82;2.28;;;15.70;99.90;;;;;;5007333;28;20136;-72
2022/07/11 06:33:35;;;;;;;4.28;2.40;;;15.80;99.90;;;;;;5007337;28;20180;-72
2022/07/11 06:36:01;;;;;;;4.30;2.40;;;15.90;99.90;;;;;;5006351;28;20048;-72
2022/07/11 06:38:28;;;;;;;5.10;2.60;;;16.00;99.90;;;;;;5014890;28;20037;-72
2022/07/11 06:40:54;;;;;;;4.43;2.10;;;16.10;99.90;;;;;;5010184;28;20514;-72
2022/07/11 06:43:20;;;;;;;4.72;2.55;;;16.30;99.90;;;;;;5006382;28;20030;-72
2022/07/11 06:45:46;;;;;;;3.92;2.30;;;16.40;99.90;;;;;;5009438;28;20467;-71
2022/07/11 06:48:12;;;;;;;4.88;2.55;;;16.50;99.90;;;;;;5007814;28;20053;-72
2022/07/11 06:50:38;;;;;;;4.97;2.13;;;16.70;99.90;;;;;;5013381;28;20033;-73
2022/07/11 06:53:04;;;;;;;3.63;1.70;;;16.80;99.90;;;;;;5004210;28;20042;-72
2022/07/11 06:55:31;;;;;;;3.78;1.80;;;17.00;99.90;;;;;;5006907;28;20038;-72
2022/07/11 06:57:57;;;;;;;5.50;2.22;;;17.10;99.90;;;;;;5008766;28;20076;-72
2022/07/11 07:00:22;;;;;;;4.03;1.63;;;17.20;99.90;;;;;;5002321;28;20065;-72
2022/07/11 07:02:48;;;;;;;4.47;1.80;;;17.30;99.90;;;;;;5001188;28;20042;-72
2022/07/11 07:05:14;;;;;;;4.70;1.92;;;17.40;99.90;;;;;;5019891;28;20041;-72
2022/07/11 07:07:40;;;;;;;3.42;1.90;;;17.50;99.90;;;;;;5006831;28;20101;-72
2022/07/11 07:10:07;;;;;;;3.78;1.80;;;17.70;99.90;;;;;;5013181;28;20030;-72
2022/07/11 07:12:32;;;;;;;2.92;1.63;;;17.90;99.90;;;;;;5007337;28;20041;-72
2022/07/11 07:15:00;;;;;;;3.15;1.67;;;18.10;99.90;;;;;;5006832;28;20096;-72
2022/07/11 07:17:26;;;;;;;5.20;1.70;;;18.30;99.90;;;;;;5000334;28;20229;-71
2022/07/11 07:19:51;;;;;;;4.70;1.90;;;18.50;99.90;;;;;;5004983;28;20476;-73
2022/07/11 07:22:17;;;;;;;3.78;1.75;;;18.70;99.90;;;;;;4987230;28;20576;-72
2022/07/11 07:24:43;;;;;;;4.63;2.03;;;19.00;99.90;;;;;;4995880;28;20030;-72
2022/07/11 07:27:10;;;;;;;3.38;1.60;;;19.20;99.90;;;;;;4996039;28;20428;-72
2022/07/11 07:29:35;;;;;;;2.92;1.65;;;19.40;99.90;;;;;;5003787;28;20092;-72
2022/07/11 07:32:01;;;;;;;3.70;1.73;;;19.70;99.90;;;;;;5003940;28;20045;-74
2022/07/11 07:34:27;;;;;;;4.82;1.63;;;19.90;99.90;;;;;;5008091;28;20164;-73
2022/07/11 07:36:52;;;;;;;2.50;1.45;;;20.10;99.90;;;;;;5007910;28;20033;-73
2022/07/11 07:39:18;;;;;;;5.10;1.88;;;20.30;99.90;;;;;;5009052;28;20041;-73
2022/07/11 07:41:44;;;;;;;3.67;1.60;;;20.50;99.90;;;;;;5008440;28;20088;-73
2022/07/11 07:44:10;;;;;;;5.03;1.40;;;20.70;99.90;;;;;;5007232;28;20041;-73
2022/07/11 07:46:36;;;;;;;2.78;1.20;;;20.90;99.90;;;;;;5010599;28;20034;-73
2022/07/11 07:49:02;;;;;;;4.40;1.40;;;21.10;99.80;;;;;;5003792;28;20109;-72
2022/07/11 07:51:29;;;;;;;3.60;1.40;;;21.30;99.70;;;;;;5017030;28;20743;-72
2022/07/11 07:53:54;;;;;;;3.55;1.20;;;21.40;99.20;;;;;;5008014;28;20041;-73
2022/07/11 07:56:20;;;;;;;3.15;1.52;;;21.50;99.10;;;;;;5011102;28;20037;-73
2022/07/11 07:58:46;;;;;;;3.90;1.48;;;21.70;99.20;;;;;;5012006;28;20049;-73
2022/07/11 08:03:56;;;;;;;1.58;1.00;;;21.80;98.30;;;;;;5013978;28;20084;-73
2022/07/11 08:06:22;;;;;;;3.08;1.10;;;22.00;98.80;;;;;;5031652;28;20026;-73
2022/07/11 08:08:49;;;;;;;2.83;1.23;;;22.10;97.90;;;;;;5015074;28;20524;-73
2022/07/11 08:11:15;;;;;;;3.17;1.20;;;22.20;98.20;;;;;;5012292;28;20465;-73
2022/07/11 08:13:40;;;;;;;2.25;1.25;;;22.40;98.60;;;;;;5012196;28;20030;-72
2022/07/11 08:16:07;;;;;;;2.35;1.10;;;22.60;98.10;;;;;;5011294;28;20397;-73
2022/07/11 08:18:33;;;;;;;2.35;1.10;;;22.70;97.50;;;;;;4995504;28;20038;-72
2022/07/11 08:20:59;;;;;;;3.35;1.33;;;22.90;97.10;;;;;;5011421;28;20026;-72
2022/07/11 08:23:25;;;;;;;4.35;1.20;;;23.10;96.90;;;;;;5013059;28;20478;-70
2022/07/11 08:25:51;;;;;;;3.28;1.30;;;23.10;97.90;;;;;;5011231;28;20074;-73
2022/07/11 08:28:17;;;;;;;4.00;1.25;;;23.30;96.60;;;;;;5014663;28;20515;-75
2022/07/11 08:30:43;;;;;;;3.83;1.23;;;23.40;96.40;;;;;;5011488;28;20088;-75
2022/07/11 08:33:08;;;;;;;3.47;1.50;;;23.50;96.00;;;;;;5007328;28;20053;-73
2022/07/11 08:35:34;;;;;;;3.55;1.05;;;23.60;96.50;;;;;;5011346;28;20049;-73
2022/07/11 08:38:00;;;;;;;3.85;1.10;;;23.70;93.70;;;;;;5005079;28;20117;-75
2022/07/11 08:40:26;;;;;;;3.63;1.00;;;23.80;92.80;;;;;;5008521;28;20041;-76
2022/07/11 08:42:55;;;;;;;3.00;0.98;;;23.80;91.10;;;;;;4991512;28;20748;-73
2022/07/11 08:45:28;;;;;;;3.10;1.00;;;23.90;93.50;;;;;;5009471;28;20026;-74
2022/07/11 08:47:55;;;;;;;2.95;1.20;;;24.00;92.70;;;;;;5021626;28;20766;-73
2022/07/11 08:50:22;;;;;;;3.40;1.00;;;24.20;93.80;;;;;;5009686;28;20038;-75
2022/07/11 08:52:48;;;;;;;2.88;0.98;;;24.30;91.70;;;;;;5011242;28;20787;-74
2022/07/11 08:55:14;;;;;;;3.15;1.00;;;24.50;91.50;;;;;;4991288;28;20137;-74
2022/07/11 08:57:40;;;;;;;3.10;0.90;;;24.60;90.80;;;;;;5007765;28;20438;-73
2022/07/11 09:00:09;;;;;;;2.72;0.90;;;24.60;88.30;;;;;;4982221;28;20373;-74
2022/07/11 09:02:35;;;;;;;2.67;1.00;;;24.60;90.70;;;;;;5009973;28;20034;-73
2022/07/11 09:05:05;;;;;;;2.58;1.00;;;24.70;93.40;;;;;;5008631;28;20389;-74
2022/07/11 09:07:32;;;;;;;3.08;1.00;;;25.00;92.00;;;;;;5009123;28;20052;-74
2022/07/11 09:09:57;;;;;;;4.32;1.00;;;25.10;87.60;;;;;;5008859;28;20034;-74
2022/07/11 09:12:23;;;;;;;3.17;0.90;;;25.30;87.30;;;;;;5007714;28;20119;-74
2022/07/11 09:14:51;;;;;;;2.85;0.88;;;25.30;86.40;;;;;;5009880;28;20044;-74
2022/07/11 09:17:26;;;;;;;2.83;1.10;;;25.40;82.50;;;;;;5005898;28;20528;-73
2022/07/11 09:19:52;;;;;;;4.25;1.00;;;25.40;84.70;;;;;;4992269;28;20030;-74
2022/07/11 09:25:20;;;;;;;3.15;0.90;;;25.60;82.00;;;;;;4991294;28;20085;-74
2022/07/11 09:27:47;;;;;;;2.70;0.95;;;25.70;84.10;;;;;;5008016;28;20560;-74
2022/07/11 09:30:20;;;;;;;3.33;0.90;;;25.80;85.60;;;;;;5010595;28;20516;-75
2022/07/11 09:32:56;;;;;;;1.95;0.82;;;25.90;84.00;;;;;;5009689;28;20053;-76
2022/07/11 09:35:30;;;;;;;2.00;0.88;;;26.00;83.00;;;;;;5007909;28;20805;-74
2022/07/11 09:37:56;;;;;;;2.22;0.82;;;26.00;83.90;;;;;;5009834;28;20030;-75
2022/07/11 09:40:22;;;;;;;2.58;0.80;;;26.10;80.80;;;;;;5009001;28;20084;-74
2022/07/11 09:42:50;;;;;;;2.22;0.93;;;26.20;79.50;;;;;;5006050;28;20042;-75
2022/07/11 09:45:17;;;;;;;3.03;1.00;;;26.10;75.90;;;;;;5008526;28;20037;-75
2022/07/11 09:47:47;;;;;;;2.92;0.90;;;26.00;73.80;;;;;;5006268;28;20530;-74
2022/07/11 09:50:17;;;;;;;3.03;0.88;;;26.00;80.20;;;;;;5007138;28;20029;-73
2022/07/11 09:52:57;;;;;;;4.95;0.82;;;26.00;80.90;;;;;;5005462;28;20040;-74
2022/07/11 09:55:25;;;;;;;3.28;0.80;;;26.10;72.30;;;;;;5006411;28;20028;-73
2022/07/11 09:57:50;;;;;;;2.75;0.90;;;26.00;78.70;;;;;;5006269;28;20033;-72
2022/07/11 10:00:16;;;;;;;2.80;1.08;;;26.10;81.80;;;;;;5004917;28;20044;-75
2022/07/11 10:02:42;;;;;;;2.80;0.90;;;26.10;73.40;;;;;;4994671;28;20440;-72
2022/07/11 10:05:08;;;;;;;3.15;0.90;;;26.20;79.50;;;;;;5006032;28;20092;-74
2022/07/11 10:07:34;;;;;;;2.28;0.80;;;26.40;77.00;;;;;;5006409;28;20492;-73
2022/07/11 10:10:01;;;;;;;2.33;1.00;;;26.40;76.30;;;;;;5009003;28;20053;-75
2022/07/11 10:12:29;;;;;;;2.10;0.90;;;26.60;74.20;;;;;;5005613;28;20033;-72
2022/07/11 10:14:56;;;;;;;4.25;1.02;;;26.60;70.50;;;;;;4991207;28;20408;-73
2022/07/11 10:17:59;;;;;;;4.75;1.30;;;26.50;77.20;;;;;;5008684;28;20041;-74
2022/07/11 10:20:42;;;;;;;1.83;0.80;;;26.60;78.40;;;;;;5004122;28;20149;-74
2022/07/11 10:23:23;;;;;;;3.33;0.90;;;26.90;72.20;;;;;;5007979;28;20088;-75
2022/07/11 10:26:07;;;;;;;2.78;1.00;;;27.00;70.10;;;;;;4989093;28;20030;-74
2022/07/11 10:28:32;;;;;;;2.70;0.90;;;27.00;71.70;;;;;;5007255;28;20046;-73
2022/07/11 10:31:01;;;;;;;3.35;0.98;;;27.10;71.30;;;;;;5008857;28;20301;-74
2022/07/11 10:33:28;;;;;;;3.40;1.00;;;27.10;69.00;;;;;;5005716;28;20045;-74
2022/07/11 10:35:55;;;;;;;2.90;1.13;;;27.20;65.60;;;;;;4988147;28;20042;-73
2022/07/11 10:38:23;;;;;;;3.53;0.93;;;27.10;65.60;;;;;;5007970;28;20471;-77
2022/07/11 10:40:50;;;;;;;4.55;0.88;;;27.10;71.80;;;;;;5004616;28;20079;-78
2022/07/11 10:43:35;;;;;;;2.60;0.90;;;27.20;68.30;;;;;;5010508;28;20497;-78
2022/07/11 10:46:27;;;;;;;3.03;1.00;;;27.30;66.20;;;;;;5006599;28;20845;-78
2022/07/11 10:49:04;;;;;;;2.28;0.98;;;27.40;65.20;;;;;;4987557;28;20132;-79
2022/07/11 10:51:48;;;;;;;3.05;1.00;;;27.40;67.00;;;;;;4997204;28;20068;-79
2022/07/11 10:54:17;;;;;;;4.07;1.00;;;27.40;65.70;;;;;;5008419;28;20029;-80
2022/07/11 10:56:51;;;;;;;4.50;1.08;;;27.40;66.70;;;;;;5010383;28;20033;-76
2022/07/11 10:59:19;;;;;;;3.17;1.10;;;27.50;63.40;;;;;;5007407;28;20049;-78
2022/07/11 11:02:07;;;;;;;2.33;0.80;;;27.50;64.40;;;;;;5007791;28;20034;-79
2022/07/11 11:04:46;;;;;;;2.70;0.80;;;27.50;66.70;;;;;;5017321;28;20044;-75
2022/07/11 11:07:40;;;;;;;2.15;0.70;;;27.40;67.10;;;;;;5008142;28;20042;-78
2022/07/11 11:10:18;;;;;;;2.22;0.88;;;27.50;70.30;;;;;;4999111;28;20526;-77
2022/07/11 11:13:13;;;;;;;3.65;1.08;;;27.70;71.50;;;;;;5006582;28;20029;-77
2022/07/11 11:15:45;;;;;;;2.10;0.80;;;27.80;65.50;;;;;;5007162;28;20377;-78
2022/07/11 11:18:23;;;;;;;1.98;0.85;;;27.90;66.00;;;;;;5027377;28;20049;-79
2022/07/11 11:21:07;;;;;;;2.13;0.82;;;28.10;63.50;;;;;;5005335;28;20136;-76
2022/07/11 11:23:40;;;;;;;3.40;1.00;;;28.30;65.20;;;;;;5006444;28;20040;-81
2022/07/11 11:26:14;;;;;;;2.50;1.00;;;28.70;60.50;;;;;;4996490;28;20040;-82
2022/07/11 11:29:04;;;;;;;3.85;0.90;;;29.90;54.20;;;;;;4996621;28;20042;-79
2022/07/11 11:31:31;;;;;;;2.08;0.88;;;31.40;49.20;;;;;;4991366;28;20026;-77
2022/07/11 11:33:58;;;;;;;3.75;1.10;;;31.20;51.70;;;;;;5006554;28;20141;-78
2022/07/11 11:36:25;;;;;;;3.20;1.00;;;30.60;47.60;;;;;;4993325;28;20056;-79
2022/07/11 11:38:54;;;;;;;2.33;1.00;;;30.10;50.70;;;;;;5009261;28;20041;-79
2022/07/11 11:41:24;;;;;;;;;;;29.90;49.10;;;;;;5008660;28;20041;-78
2022/07/11 11:43:51;;;;;;;2.67;1.02;;;29.50;51.10;;;;;;5008236;28;19909;-80
2022/07/11 11:46:16;;;;;;;3.50;1.00;;;29.40;52.90;;;;;;5004914;28;20042;-79
2022/07/11 11:48:46;;;;;;;3.13;0.90;;;29.20;55.30;;;;;;5002234;28;20038;-78
2022/07/11 11:51:13;;;;;;;3.05;1.13;;;29.10;52.20;;;;;;5006249;28;20392;-82
2022/07/11 11:53:51;;;;;;;3.22;0.93;;;28.90;54.40;;;;;;5005638;28;20066;-79
2022/07/11 11:56:32;;;;;;;2.37;0.90;;;28.90;55.40;;;;;;5005278;28;20049;-82
2022/07/11 11:59:13;;;;;;;2.85;1.20;;;28.70;54.50;;;;;;4989663;28;20326;-76
2022/07/11 12:01:40;;;;;;;1.92;1.05;;;28.70;56.80;;;;;;5010900;28;20087;-79
2022/07/11 12:04:16;;;;;;;4.32;1.10;;;28.70;55.00;;;;;;5006280;28;20042;-80
2022/07/11 12:06:45;;;;;;;2.25;1.00;;;28.80;55.40;;;;;;5009966;28;20041;-79
2022/07/11 12:09:12;;;;;;;4.13;1.17;;;29.50;55.10;;;;;;5006357;28;20048;-80
2022/07/11 12:11:42;;;;;;;5.35;1.10;;;29.40;54.70;;;;;;5007080;28;20042;-81
2022/07/11 12:14:10;;;;;;;1.48;0.70;;;29.20;54.50;;;;;;5006188;28;20467;-83
2022/07/11 12:16:48;;;;;;;2.78;1.10;;;29.00;54.80;;;;;;5001477;28;20030;-79
2022/07/11 12:19:19;;;;;;;2.33;0.88;;;28.90;57.20;;;;;;5008639;28;20030;-76
2022/07/11 12:21:47;;;;;;;3.15;1.13;;;28.90;56.60;;;;;;5000376;28;20129;-82
2022/07/11 12:24:16;;;;;;;3.75;1.00;;;28.90;56.70;;;;;;5014611;28;20473;-84
2022/07/11 12:26:42;;;;;;;1.77;0.90;;;28.80;55.60;;;;;;5007322;28;20137;-81
2022/07/11 12:29:12;;;;;;;3.03;1.10;;;28.80;54.00;;;;;;5007565;28;20068;-82
2022/07/11 12:31:54;;;;;;;2.70;0.90;;;28.70;57.40;;;;;;5006116;28;20026;-81
2022/07/11 12:34:32;;;;;;;3.28;0.90;;;28.70;58.30;;;;;;5002893;28;20049;-80
2022/07/11 12:37:27;;;;;;;2.38;0.90;;;28.80;58.70;;;;;;5004688;28;20478;-80
2022/07/11 12:39:56;;;;;;;2.13;0.85;;;28.80;54.80;;;;;;5003952;28;20033;-82
2022/07/11 12:42:33;;;;;;;2.53;0.98;;;28.80;55.60;;;;;;4994180;28;20029;-80
2022/07/11 12:45:15;;;;;;;2.70;0.90;;;28.80;54.20;;;;;;5011147;28;20495;-83
2022/07/11 12:47:46;;;;;;;2.47;1.00;;;28.60;54.90;;;;;;5010456;28;20045;-80
2022/07/11 12:50:19;;;;;;;4.47;1.27;;;28.60;55.30;;;;;;5031094;28;20061;-81
2022/07/11 12:52:47;;;;;;;3.08;0.88;;;28.70;55.10;;;;;;5022202;28;20029;-85
2022/07/11 12:55:26;;;;;;;2.60;1.10;;;28.80;57.20;;;;;;5009790;28;20084;-79
2022/07/11 12:58:05;;;;;;;;;;;28.90;58.00;;;;;;5012709;28;20033;-83
2022/07/11 13:00:32;;;;;;;;;;;29.10;57.30;;;;;;5011597;28;19963;-76